sensor_id;sensor_type;location;lat;lon;timestamp;temperature;humidity
42715;DHT22;28351;51.480;5.706;2023-03-01T00:02:10;-1.70;99.90
42715;DHT22;28351;51.480;5.706;2023-03-01T00:04:36;-1.70;99.90
42715;DHT22;28351;51.480;5.706;2023-03-01T00:07:02;-1.70;99.90
42715;DHT22;28351;51.480;5.706;2023-03-01T00:09:27;-1.70;99.90
42715;DHT22;28351;51.480;5.706;2023-03-01T00:11:53;-1.70;99.90
42715;DHT22;28351;51.480;5.706;2023-03-01T00:14:18;-1.80;99.90
42715;DHT22;28351;51.480;5.706;2023-03-01T00:16:45;-1.80;99.90
42715;DHT22;28351;51.480;5.706;2023-03-01T00:19:19;-1.80;99.90
42715;DHT22;28351;51.480;5.706;2023-03-01T00:21:45;-1.90;99.90
42715;DHT22;28351;51.480;5.706;2023-03-01T00:24:12;-1.90;99.90
42715;DHT22;28351;51.480;5.706;2023-03-01T00:26:40;-1.90;99.90
42715;DHT22;28351;51.480;5.706;2023-03-01T00:29:06;-1.90;99.90
42715;DHT22;28351;51.480;5.706;2023-03-01T00:31:33;-1.90;99.90
42715;DHT22;28351;51.480;5.706;2023-03-01T00:34:01;-2.00;99.90
42715;DHT22;28351;51.480;5.706;2023-03-01T00:36:28;-2.00;99.90
42715;DHT22;28351;51.480;5.706;2023-03-01T00:38:56;-2.00;99.90
42715;DHT22;28351;51.480;5.706;2023-03-01T00:41:23;-2.00;99.90
42715;DHT22;28351;51.480;5.706;2023-03-01T00:43:49;-2.00;99.90
42715;DHT22;28351;51.480;5.706;2023-03-01T00:46:18;-2.10;99.90
42715;DHT22;28351;51.480;5.706;2023-03-01T00:48:44;-2.10;99.90
42715;DHT22;28351;51.480;5.706;2023-03-01T00:51:12;-2.10;99.90
42715;DHT22;28351;51.480;5.706;2023-03-01T00:53:37;-2.10;99.90
42715;DHT22;28351;51.480;5.706;2023-03-01T00:56:04;-2.10;99.90
42715;DHT22;28351;51.480;5.706;2023-03-01T00:58:30;-2.10;99.90
42715;DHT22;28351;51.480;5.706;2023-03-01T01:00:55;-2.20;99.90
42715;DHT22;28351;51.480;5.706;2023-03-01T01:03:21;-2.20;99.90
42715;DHT22;28351;51.480;5.706;2023-03-01T01:05:50;-2.20;99.90
42715;DHT22;28351;51.480;5.706;2023-03-01T01:08:16;-2.20;99.90
42715;DHT22;28351;51.480;5.706;2023-03-01T01:10:44;-2.20;99.90
42715;DHT22;28351;51.480;5.706;2023-03-01T01:13:09;-2.20;99.90
42715;DHT22;28351;51.480;5.706;2023-03-01T01:15:35;-2.30;99.90
42715;DHT22;28351;51.480;5.706;2023-03-01T01:18:01;-2.30;99.90
42715;DHT22;28351;51.480;5.706;2023-03-01T01:20:27;-2.30;99.90
42715;DHT22;28351;51.480;5.706;2023-03-01T01:22:53;-2.30;99.90
42715;DHT22;28351;51.480;5.706;2023-03-01T01:25:19;-2.40;99.90
42715;DHT22;28351;51.480;5.706;2023-03-01T01:27:45;-2.40;99.90
42715;DHT22;28351;51.480;5.706;2023-03-01T01:30:11;-2.40;99.90
42715;DHT22;28351;51.480;5.706;2023-03-01T01:32:37;-2.40;99.90
42715;DHT22;28351;51.480;5.706;2023-03-01T01:35:03;-2.40;99.90
42715;DHT22;28351;51.480;5.706;2023-03-01T01:37:28;-2.40;99.90
42715;DHT22;28351;51.480;5.706;2023-03-01T01:39:59;-2.40;99.90
42715;DHT22;28351;51.480;5.706;2023-03-01T01:42:26;-2.40;99.90
42715;DHT22;28351;51.480;5.706;2023-03-01T01:45:31;-2.40;99.90
42715;DHT22;28351;51.480;5.706;2023-03-01T01:48:06;-2.40;99.90
42715;DHT22;28351;51.480;5.706;2023-03-01T01:50:36;-2.40;99.90
42715;DHT22;28351;51.480;5.706;2023-03-01T01:53:18;-2.40;99.90
42715;DHT22;28351;51.480;5.706;2023-03-01T01:55:53;-2.50;99.90
42715;DHT22;28351;51.480;5.706;2023-03-01T01:58:20;-2.50;99.90
42715;DHT22;28351;51.480;5.706;2023-03-01T02:00:47;-2.40;99.90
42715;DHT22;28351;51.480;5.706;2023-03-01T02:03:18;-2.40;99.90
42715;DHT22;28351;51.480;5.706;2023-03-01T02:05:58;-2.40;99.90
42715;DHT22;28351;51.480;5.706;2023-03-01T02:08:28;-2.40;99.90
42715;DHT22;28351;51.480;5.706;2023-03-01T02:10:58;-2.40;99.90
42715;DHT22;28351;51.480;5.706;2023-03-01T02:13:25;-2.50;99.90
42715;DHT22;28351;51.480;5.706;2023-03-01T02:15:51;-2.50;99.90
42715;DHT22;28351;51.480;5.706;2023-03-01T02:18:18;-2.50;99.90
42715;DHT22;28351;51.480;5.706;2023-03-01T02:23:28;-2.60;99.90
42715;DHT22;28351;51.480;5.706;2023-03-01T02:28:29;-2.60;99.90
42715;DHT22;28351;51.480;5.706;2023-03-01T02:30:55;-2.60;99.90
42715;DHT22;28351;51.480;5.706;2023-03-01T02:33:40;-2.60;99.90
42715;DHT22;28351;51.480;5.706;2023-03-01T02:36:10;-2.60;99.90
42715;DHT22;28351;51.480;5.706;2023-03-01T02:38:39;-2.60;99.90
42715;DHT22;28351;51.480;5.706;2023-03-01T02:41:06;-2.70;99.90
42715;DHT22;28351;51.480;5.706;2023-03-01T02:43:33;-2.60;99.90
42715;DHT22;28351;51.480;5.706;2023-03-01T02:46:03;-2.60;99.90
42715;DHT22;28351;51.480;5.706;2023-03-01T02:48:42;-2.60;99.90
42715;DHT22;28351;51.480;5.706;2023-03-01T02:56:30;-2.50;99.90
42715;DHT22;28351;51.480;5.706;2023-03-01T02:58:55;-2.50;99.90
42715;DHT22;28351;51.480;5.706;2023-03-01T03:01:27;-2.50;99.90
42715;DHT22;28351;51.480;5.706;2023-03-01T03:04:06;-2.60;99.90
42715;DHT22;28351;51.480;5.706;2023-03-01T03:06:32;-2.60;99.90
42715;DHT22;28351;51.480;5.706;2023-03-01T03:08:58;-2.60;99.90
42715;DHT22;28351;51.480;5.706;2023-03-01T03:11:26;-2.60;99.90
42715;DHT22;28351;51.480;5.706;2023-03-01T03:13:52;-2.60;99.90
42715;DHT22;28351;51.480;5.706;2023-03-01T03:16:18;-2.60;99.90
42715;DHT22;28351;51.480;5.706;2023-03-01T03:18:44;-2.60;99.90
42715;DHT22;28351;51.480;5.706;2023-03-01T03:21:19;-2.60;99.90
42715;DHT22;28351;51.480;5.706;2023-03-01T03:23:44;-2.60;99.90
42715;DHT22;28351;51.480;5.706;2023-03-01T03:26:10;-2.70;99.90
42715;DHT22;28351;51.480;5.706;2023-03-01T03:28:40;-2.70;99.90
42715;DHT22;28351;51.480;5.706;2023-03-01T03:31:07;-2.70;99.90
42715;DHT22;28351;51.480;5.706;2023-03-01T03:33:33;-2.70;99.90
42715;DHT22;28351;51.480;5.706;2023-03-01T03:35:58;-2.60;99.90
42715;DHT22;28351;51.480;5.706;2023-03-01T03:38:24;-2.70;99.90
42715;DHT22;28351;51.480;5.706;2023-03-01T03:41:01;-2.70;99.90
42715;DHT22;28351;51.480;5.706;2023-03-01T03:43:34;-2.80;99.90
42715;DHT22;28351;51.480;5.706;2023-03-01T03:46:01;-2.80;99.90
42715;DHT22;28351;51.480;5.706;2023-03-01T03:48:34;-2.80;99.90
42715;DHT22;28351;51.480;5.706;2023-03-01T03:51:00;-2.90;99.90
42715;DHT22;28351;51.480;5.706;2023-03-01T03:53:28;-2.90;99.90
42715;DHT22;28351;51.480;5.706;2023-03-01T03:55:54;-2.90;99.90
42715;DHT22;28351;51.480;5.706;2023-03-01T03:58:24;-2.90;99.90
42715;DHT22;28351;51.480;5.706;2023-03-01T04:01:00;-2.90;99.90
42715;DHT22;28351;51.480;5.706;2023-03-01T04:03:30;-3.00;99.90
42715;DHT22;28351;51.480;5.706;2023-03-01T04:05:58;-2.90;99.90
42715;DHT22;28351;51.480;5.706;2023-03-01T04:08:24;-2.80;99.90
42715;DHT22;28351;51.480;5.706;2023-03-01T04:13:59;-2.80;99.90
42715;DHT22;28351;51.480;5.706;2023-03-01T04:16:25;-2.90;99.90
42715;DHT22;28351;51.480;5.706;2023-03-01T04:18:51;-2.90;99.90
42715;DHT22;28351;51.480;5.706;2023-03-01T04:21:26;-2.90;99.90
42715;DHT22;28351;51.480;5.706;2023-03-01T04:23:51;-2.90;99.90
42715;DHT22;28351;51.480;5.706;2023-03-01T04:26:25;-2.90;99.90
42715;DHT22;28351;51.480;5.706;2023-03-01T04:28:52;-3.00;99.90
42715;DHT22;28351;51.480;5.706;2023-03-01T04:31:44;-3.00;99.90
42715;DHT22;28351;51.480;5.706;2023-03-01T04:34:09;-3.00;99.90
42715;DHT22;28351;51.480;5.706;2023-03-01T04:36:35;-2.90;99.90
42715;DHT22;28351;51.480;5.706;2023-03-01T04:39:00;-2.90;99.90
42715;DHT22;28351;51.480;5.706;2023-03-01T04:41:37;-2.90;99.90
42715;DHT22;28351;51.480;5.706;2023-03-01T04:47:26;-2.90;99.90
42715;DHT22;28351;51.480;5.706;2023-03-01T04:56:43;-2.70;99.90
42715;DHT22;28351;51.480;5.706;2023-03-01T04:59:16;-2.70;99.90
42715;DHT22;28351;51.480;5.706;2023-03-01T05:01:43;-2.70;99.90
42715;DHT22;28351;51.480;5.706;2023-03-01T05:04:08;-2.70;99.90
42715;DHT22;28351;51.480;5.706;2023-03-01T05:09:51;-2.60;99.90
42715;DHT22;28351;51.480;5.706;2023-03-01T05:12:17;-2.60;99.90
42715;DHT22;28351;51.480;5.706;2023-03-01T05:14:45;-2.70;99.90
42715;DHT22;28351;51.480;5.706;2023-03-01T05:17:11;-2.80;99.90
42715;DHT22;28351;51.480;5.706;2023-03-01T05:19:36;-2.80;99.90
42715;DHT22;28351;51.480;5.706;2023-03-01T05:22:02;-2.80;99.90
42715;DHT22;28351;51.480;5.706;2023-03-01T05:24:56;-2.90;99.90
42715;DHT22;28351;51.480;5.706;2023-03-01T05:30:54;-3.00;99.90
42715;DHT22;28351;51.480;5.706;2023-03-01T05:33:20;-3.00;99.90
42715;DHT22;28351;51.480;5.706;2023-03-01T05:35:52;-3.10;99.90
42715;DHT22;28351;51.480;5.706;2023-03-01T05:38:34;-3.10;99.90
42715;DHT22;28351;51.480;5.706;2023-03-01T05:41:01;-3.10;99.90
42715;DHT22;28351;51.480;5.706;2023-03-01T05:43:30;-3.10;99.90
42715;DHT22;28351;51.480;5.706;2023-03-01T05:45:59;-3.20;99.90
42715;DHT22;28351;51.480;5.706;2023-03-01T05:48:25;-3.30;99.90
42715;DHT22;28351;51.480;5.706;2023-03-01T05:50:51;-3.20;99.90
42715;DHT22;28351;51.480;5.706;2023-03-01T05:53:19;-3.30;99.90
42715;DHT22;28351;51.480;5.706;2023-03-01T05:55:58;-3.30;99.90
42715;DHT22;28351;51.480;5.706;2023-03-01T05:58:52;-3.30;99.90
42715;DHT22;28351;51.480;5.706;2023-03-01T06:01:17;-3.30;99.90
42715;DHT22;28351;51.480;5.706;2023-03-01T06:03:43;-3.30;99.90
42715;DHT22;28351;51.480;5.706;2023-03-01T06:08:56;-3.40;99.90
42715;DHT22;28351;51.480;5.706;2023-03-01T06:14:30;-3.40;99.90
42715;DHT22;28351;51.480;5.706;2023-03-01T06:16:56;-3.40;99.90
42715;DHT22;28351;51.480;5.706;2023-03-01T06:19:22;-3.40;99.90
42715;DHT22;28351;51.480;5.706;2023-03-01T06:25:19;-3.40;99.90
42715;DHT22;28351;51.480;5.706;2023-03-01T06:28:15;-3.40;99.90
42715;DHT22;28351;51.480;5.706;2023-03-01T06:46:57;-3.30;99.90
42715;DHT22;28351;51.480;5.706;2023-03-01T06:59:22;-3.30;99.90
42715;DHT22;28351;51.480;5.706;2023-03-01T07:02:00;-3.30;99.90
42715;DHT22;28351;51.480;5.706;2023-03-01T07:04:26;-3.30;99.90
42715;DHT22;28351;51.480;5.706;2023-03-01T07:06:53;-3.30;99.90
42715;DHT22;28351;51.480;5.706;2023-03-01T07:09:22;-3.20;99.90
42715;DHT22;28351;51.480;5.706;2023-03-01T07:15:11;-3.20;99.90
42715;DHT22;28351;51.480;5.706;2023-03-01T07:17:37;-3.20;99.90
42715;DHT22;28351;51.480;5.706;2023-03-01T07:20:03;-3.10;99.90
42715;DHT22;28351;51.480;5.706;2023-03-01T07:22:29;-3.10;99.90
42715;DHT22;28351;51.480;5.706;2023-03-01T07:24:54;-3.00;99.90
42715;DHT22;28351;51.480;5.706;2023-03-01T07:27:20;-3.00;99.90
42715;DHT22;28351;51.480;5.706;2023-03-01T07:29:46;-3.00;99.90
42715;DHT22;28351;51.480;5.706;2023-03-01T07:32:28;-3.00;99.90
42715;DHT22;28351;51.480;5.706;2023-03-01T07:34:54;-2.90;99.90
42715;DHT22;28351;51.480;5.706;2023-03-01T07:37:19;-2.80;99.90
42715;DHT22;28351;51.480;5.706;2023-03-01T07:39:48;-2.70;99.90
42715;DHT22;28351;51.480;5.706;2023-03-01T07:42:13;-2.60;99.90
42715;DHT22;28351;51.480;5.706;2023-03-01T07:44:39;-2.60;99.90
42715;DHT22;28351;51.480;5.706;2023-03-01T07:47:05;-2.40;99.90
42715;DHT22;28351;51.480;5.706;2023-03-01T07:49:30;-2.30;99.90
42715;DHT22;28351;51.480;5.706;2023-03-01T07:51:56;-2.30;99.90
42715;DHT22;28351;51.480;5.706;2023-03-01T07:54:33;-2.20;99.90
42715;DHT22;28351;51.480;5.706;2023-03-01T07:57:28;-2.10;99.90
42715;DHT22;28351;51.480;5.706;2023-03-01T07:59:53;-2.00;99.90
42715;DHT22;28351;51.480;5.706;2023-03-01T08:02:19;-1.70;99.90
42715;DHT22;28351;51.480;5.706;2023-03-01T08:04:45;-1.50;99.90
42715;DHT22;28351;51.480;5.706;2023-03-01T08:07:16;-1.40;99.90
42715;DHT22;28351;51.480;5.706;2023-03-01T08:09:41;-1.20;99.90
42715;DHT22;28351;51.480;5.706;2023-03-01T08:12:08;-1.10;99.90
42715;DHT22;28351;51.480;5.706;2023-03-01T08:14:43;-0.80;99.90
42715;DHT22;28351;51.480;5.706;2023-03-01T08:17:14;-0.70;99.90
42715;DHT22;28351;51.480;5.706;2023-03-01T08:19:46;-0.60;99.90
42715;DHT22;28351;51.480;5.706;2023-03-01T08:22:12;-0.40;99.90
42715;DHT22;28351;51.480;5.706;2023-03-01T08:24:37;-0.30;99.90
42715;DHT22;28351;51.480;5.706;2023-03-01T08:27:03;-0.20;99.90
42715;DHT22;28351;51.480;5.706;2023-03-01T08:29:32;-0.10;99.90
42715;DHT22;28351;51.480;5.706;2023-03-01T08:31:58;0.00;99.90
42715;DHT22;28351;51.480;5.706;2023-03-01T08:34:23;0.10;99.90
42715;DHT22;28351;51.480;5.706;2023-03-01T08:36:49;0.20;99.90
42715;DHT22;28351;51.480;5.706;2023-03-01T08:39:18;0.20;99.90
42715;DHT22;28351;51.480;5.706;2023-03-01T08:41:44;0.30;99.90
42715;DHT22;28351;51.480;5.706;2023-03-01T08:44:12;0.40;99.90
42715;DHT22;28351;51.480;5.706;2023-03-01T08:46:40;0.40;99.90
42715;DHT22;28351;51.480;5.706;2023-03-01T08:49:07;0.50;99.90
42715;DHT22;28351;51.480;5.706;2023-03-01T08:51:33;0.60;99.90
42715;DHT22;28351;51.480;5.706;2023-03-01T08:54:06;0.70;99.90
42715;DHT22;28351;51.480;5.706;2023-03-01T08:56:32;0.80;99.90
42715;DHT22;28351;51.480;5.706;2023-03-01T08:58:58;0.90;99.90
42715;DHT22;28351;51.480;5.706;2023-03-01T09:01:24;1.00;99.90
42715;DHT22;28351;51.480;5.706;2023-03-01T09:03:50;1.10;99.90
42715;DHT22;28351;51.480;5.706;2023-03-01T09:06:24;1.10;99.90
42715;DHT22;28351;51.480;5.706;2023-03-01T09:08:50;1.20;99.90
42715;DHT22;28351;51.480;5.706;2023-03-01T09:11:19;1.30;99.90
42715;DHT22;28351;51.480;5.706;2023-03-01T09:13:46;1.50;99.90
42715;DHT22;28351;51.480;5.706;2023-03-01T09:16:15;1.50;99.90
42715;DHT22;28351;51.480;5.706;2023-03-01T09:18:41;1.60;99.90
42715;DHT22;28351;51.480;5.706;2023-03-01T09:21:12;1.70;99.90
42715;DHT22;28351;51.480;5.706;2023-03-01T09:23:45;1.80;99.90
42715;DHT22;28351;51.480;5.706;2023-03-01T09:26:20;1.90;99.90
42715;DHT22;28351;51.480;5.706;2023-03-01T09:28:47;2.10;99.90
42715;DHT22;28351;51.480;5.706;2023-03-01T09:31:14;2.20;99.90
42715;DHT22;28351;51.480;5.706;2023-03-01T09:33:41;2.30;99.90
42715;DHT22;28351;51.480;5.706;2023-03-01T09:36:12;2.40;99.90
42715;DHT22;28351;51.480;5.706;2023-03-01T09:39:13;2.50;99.90
42715;DHT22;28351;51.480;5.706;2023-03-01T09:41:54;2.70;99.90
42715;DHT22;28351;51.480;5.706;2023-03-01T09:47:00;2.80;99.90
42715;DHT22;28351;51.480;5.706;2023-03-01T09:49:28;2.90;99.90
42715;DHT22;28351;51.480;5.706;2023-03-01T09:54:49;3.10;99.90
42715;DHT22;28351;51.480;5.706;2023-03-01T09:57:37;3.20;99.90
42715;DHT22;28351;51.480;5.706;2023-03-01T10:02:46;3.30;99.90
42715;DHT22;28351;51.480;5.706;2023-03-01T10:10:47;3.60;99.90
42715;DHT22;28351;51.480;5.706;2023-03-01T10:13:22;3.70;99.90
42715;DHT22;28351;51.480;5.706;2023-03-01T10:15:58;3.70;99.90
42715;DHT22;28351;51.480;5.706;2023-03-01T10:18:30;3.80;99.90
42715;DHT22;28351;51.480;5.706;2023-03-01T10:21:03;3.90;99.90
42715;DHT22;28351;51.480;5.706;2023-03-01T10:23:33;4.10;99.90
42715;DHT22;28351;51.480;5.706;2023-03-01T10:26:06;4.20;99.90
42715;DHT22;28351;51.480;5.706;2023-03-01T10:31:44;4.50;99.60
42715;DHT22;28351;51.480;5.706;2023-03-01T10:34:14;4.60;99.50
42715;DHT22;28351;51.480;5.706;2023-03-01T10:36:41;4.80;99.20
42715;DHT22;28351;51.480;5.706;2023-03-01T10:39:33;4.90;99.30
42715;DHT22;28351;51.480;5.706;2023-03-01T10:42:00;4.90;98.70
42715;DHT22;28351;51.480;5.706;2023-03-01T10:44:39;4.80;98.30
42715;DHT22;28351;51.480;5.706;2023-03-01T10:47:16;4.80;98.20
42715;DHT22;28351;51.480;5.706;2023-03-01T10:50:08;5.00;98.10
42715;DHT22;28351;51.480;5.706;2023-03-01T10:52:59;5.20;97.50
42715;DHT22;28351;51.480;5.706;2023-03-01T10:55:31;5.30;97.70
42715;DHT22;28351;51.480;5.706;2023-03-01T10:58:19;5.30;97.50
42715;DHT22;28351;51.480;5.706;2023-03-01T11:00:59;5.40;97.60
42715;DHT22;28351;51.480;5.706;2023-03-01T11:03:32;5.50;97.00
42715;DHT22;28351;51.480;5.706;2023-03-01T11:08:46;5.60;97.00
42715;DHT22;28351;51.480;5.706;2023-03-01T11:11:31;5.70;96.90
42715;DHT22;28351;51.480;5.706;2023-03-01T11:14:27;5.60;96.40
42715;DHT22;28351;51.480;5.706;2023-03-01T11:17:26;5.80;96.60
42715;DHT22;28351;51.480;5.706;2023-03-01T11:20:13;6.20;96.70
42715;DHT22;28351;51.480;5.706;2023-03-01T11:22:58;6.40;96.00
42715;DHT22;28351;51.480;5.706;2023-03-01T11:25:47;6.40;95.60
42715;DHT22;28351;51.480;5.706;2023-03-01T11:28:17;6.60;95.20
42715;DHT22;28351;51.480;5.706;2023-03-01T11:30:53;6.80;95.00
42715;DHT22;28351;51.480;5.706;2023-03-01T11:34:05;7.10;94.60
42715;DHT22;28351;51.480;5.706;2023-03-01T11:38:41;8.10;94.10
42715;DHT22;28351;51.480;5.706;2023-03-01T11:41:10;8.70;93.30
42715;DHT22;28351;51.480;5.706;2023-03-01T11:44:00;9.10;92.70
42715;DHT22;28351;51.480;5.706;2023-03-01T11:52:13;11.60;91.00
42715;DHT22;28351;51.480;5.706;2023-03-01T12:01:07;14.20;85.60
42715;DHT22;28351;51.480;5.706;2023-03-01T12:09:06;15.30;83.60
42715;DHT22;28351;51.480;5.706;2023-03-01T12:14:23;15.20;80.20
42715;DHT22;28351;51.480;5.706;2023-03-01T12:22:33;16.00;79.60
42715;DHT22;28351;51.480;5.706;2023-03-01T12:25:30;16.60;78.60
42715;DHT22;28351;51.480;5.706;2023-03-01T12:37:05;16.60;78.20
42715;DHT22;28351;51.480;5.706;2023-03-01T12:45:03;17.80;76.90
42715;DHT22;28351;51.480;5.706;2023-03-01T12:48:00;17.70;76.10
42715;DHT22;28351;51.480;5.706;2023-03-01T12:50:48;16.30;77.20
42715;DHT22;28351;51.480;5.706;2023-03-01T12:53:32;15.60;77.70
42715;DHT22;28351;51.480;5.706;2023-03-01T12:59:13;16.20;79.60
42715;DHT22;28351;51.480;5.706;2023-03-01T13:01:48;16.80;77.70
42715;DHT22;28351;51.480;5.706;2023-03-01T13:10:12;15.80;77.60
42715;DHT22;28351;51.480;5.706;2023-03-01T13:12:46;16.30;76.80
42715;DHT22;28351;51.480;5.706;2023-03-01T13:15:35;15.80;77.00
42715;DHT22;28351;51.480;5.706;2023-03-01T13:20:50;15.50;77.90
42715;DHT22;28351;51.480;5.706;2023-03-01T13:31:08;16.30;76.10
42715;DHT22;28351;51.480;5.706;2023-03-01T13:33:46;15.80;78.50
42715;DHT22;28351;51.480;5.706;2023-03-01T13:39:29;16.40;76.90
42715;DHT22;28351;51.480;5.706;2023-03-01T13:41:58;14.80;78.50
42715;DHT22;28351;51.480;5.706;2023-03-01T13:44:36;16.40;77.60
42715;DHT22;28351;51.480;5.706;2023-03-01T13:49:57;16.20;77.60
42715;DHT22;28351;51.480;5.706;2023-03-01T13:58:33;15.70;77.00
42715;DHT22;28351;51.480;5.706;2023-03-01T14:01:28;15.90;77.60
42715;DHT22;28351;51.480;5.706;2023-03-01T14:03:54;16.80;77.50
42715;DHT22;28351;51.480;5.706;2023-03-01T14:06:23;16.20;77.70
42715;DHT22;28351;51.480;5.706;2023-03-01T14:08:59;16.40;77.20
42715;DHT22;28351;51.480;5.706;2023-03-01T14:14:18;15.60;77.10
42715;DHT22;28351;51.480;5.706;2023-03-01T14:16:54;15.60;77.20
42715;DHT22;28351;51.480;5.706;2023-03-01T14:19:28;15.50;77.70
42715;DHT22;28351;51.480;5.706;2023-03-01T14:22:27;15.70;78.30
42715;DHT22;28351;51.480;5.706;2023-03-01T14:25:14;16.10;76.10
42715;DHT22;28351;51.480;5.706;2023-03-01T14:27:44;16.30;76.70
42715;DHT22;28351;51.480;5.706;2023-03-01T14:30:23;16.30;75.70
42715;DHT22;28351;51.480;5.706;2023-03-01T14:33:01;16.30;75.70
42715;DHT22;28351;51.480;5.706;2023-03-01T14:35:37;16.20;76.30
42715;DHT22;28351;51.480;5.706;2023-03-01T14:38:04;15.60;76.30
42715;DHT22;28351;51.480;5.706;2023-03-01T14:40:32;15.40;76.70
42715;DHT22;28351;51.480;5.706;2023-03-01T14:43:01;15.60;77.40
42715;DHT22;28351;51.480;5.706;2023-03-01T14:45:28;16.30;77.10
42715;DHT22;28351;51.480;5.706;2023-03-01T14:47:55;15.60;76.00
42715;DHT22;28351;51.480;5.706;2023-03-01T14:50:27;15.10;77.10
42715;DHT22;28351;51.480;5.706;2023-03-01T14:52:58;14.50;77.20
42715;DHT22;28351;51.480;5.706;2023-03-01T14:55:29;14.30;77.50
42715;DHT22;28351;51.480;5.706;2023-03-01T14:57:56;13.40;79.10
42715;DHT22;28351;51.480;5.706;2023-03-01T15:00:25;11.80;80.50
42715;DHT22;28351;51.480;5.706;2023-03-01T15:02:53;10.80;82.70
42715;DHT22;28351;51.480;5.706;2023-03-01T15:05:29;9.70;83.90
42715;DHT22;28351;51.480;5.706;2023-03-01T15:07:56;9.10;86.60
42715;DHT22;28351;51.480;5.706;2023-03-01T15:10:25;8.60;87.40
42715;DHT22;28351;51.480;5.706;2023-03-01T15:12:52;8.50;88.40
42715;DHT22;28351;51.480;5.706;2023-03-01T15:17:58;8.10;89.40
42715;DHT22;28351;51.480;5.706;2023-03-01T15:20:26;8.00;89.90
42715;DHT22;28351;51.480;5.706;2023-03-01T15:22:53;8.00;88.90
42715;DHT22;28351;51.480;5.706;2023-03-01T15:25:26;7.90;89.50
42715;DHT22;28351;51.480;5.706;2023-03-01T15:27:53;7.80;89.60
42715;DHT22;28351;51.480;5.706;2023-03-01T15:30:37;7.80;90.10
42715;DHT22;28351;51.480;5.706;2023-03-01T15:35:53;9.90;87.90
42715;DHT22;28351;51.480;5.706;2023-03-01T15:41:05;11.40;84.20
42715;DHT22;28351;51.480;5.706;2023-03-01T15:43:46;11.30;83.00
42715;DHT22;28351;51.480;5.706;2023-03-01T15:48:52;9.00;85.10
42715;DHT22;28351;51.480;5.706;2023-03-01T15:51:34;8.20;87.10
42715;DHT22;28351;51.480;5.706;2023-03-01T15:54:19;7.70;88.30
42715;DHT22;28351;51.480;5.706;2023-03-01T15:56:46;7.40;89.30
42715;DHT22;28351;51.480;5.706;2023-03-01T15:59:12;7.30;90.50
42715;DHT22;28351;51.480;5.706;2023-03-01T16:01:41;7.20;90.30
42715;DHT22;28351;51.480;5.706;2023-03-01T16:04:08;7.10;90.70
42715;DHT22;28351;51.480;5.706;2023-03-01T16:06:34;7.00;90.70
42715;DHT22;28351;51.480;5.706;2023-03-01T16:09:01;6.90;90.80
42715;DHT22;28351;51.480;5.706;2023-03-01T16:11:29;6.80;91.20
42715;DHT22;28351;51.480;5.706;2023-03-01T16:13:54;6.80;91.50
42715;DHT22;28351;51.480;5.706;2023-03-01T16:16:20;6.80;90.80
42715;DHT22;28351;51.480;5.706;2023-03-01T16:18:46;6.70;90.80
42715;DHT22;28351;51.480;5.706;2023-03-01T16:21:14;6.70;90.90
42715;DHT22;28351;51.480;5.706;2023-03-01T16:23:42;6.60;90.90
42715;DHT22;28351;51.480;5.706;2023-03-01T16:26:09;6.60;91.10
42715;DHT22;28351;51.480;5.706;2023-03-01T16:28:37;6.50;91.20
42715;DHT22;28351;51.480;5.706;2023-03-01T16:31:03;6.40;91.30
42715;DHT22;28351;51.480;5.706;2023-03-01T16:33:29;6.40;91.20
42715;DHT22;28351;51.480;5.706;2023-03-01T16:35:55;6.30;91.20
42715;DHT22;28351;51.480;5.706;2023-03-01T16:38:21;6.30;91.80
42715;DHT22;28351;51.480;5.706;2023-03-01T16:40:48;6.30;91.40
42715;DHT22;28351;51.480;5.706;2023-03-01T16:43:14;6.10;91.50
42715;DHT22;28351;51.480;5.706;2023-03-01T16:45:43;6.10;91.60
42715;DHT22;28351;51.480;5.706;2023-03-01T16:48:11;6.00;92.00
42715;DHT22;28351;51.480;5.706;2023-03-01T16:50:36;5.90;91.80
42715;DHT22;28351;51.480;5.706;2023-03-01T16:53:02;5.90;92.00
42715;DHT22;28351;51.480;5.706;2023-03-01T16:55:27;5.80;92.10
42715;DHT22;28351;51.480;5.706;2023-03-01T16:57:53;5.70;92.40
42715;DHT22;28351;51.480;5.706;2023-03-01T17:00:19;5.60;92.50
42715;DHT22;28351;51.480;5.706;2023-03-01T17:02:48;5.60;92.80
42715;DHT22;28351;51.480;5.706;2023-03-01T17:05:14;5.50;93.00
42715;DHT22;28351;51.480;5.706;2023-03-01T17:07:39;5.50;93.20
42715;DHT22;28351;51.480;5.706;2023-03-01T17:10:08;5.40;93.60
42715;DHT22;28351;51.480;5.706;2023-03-01T17:12:34;5.30;93.60
42715;DHT22;28351;51.480;5.706;2023-03-01T17:15:00;5.20;93.80
42715;DHT22;28351;51.480;5.706;2023-03-01T17:17:26;5.10;94.00
42715;DHT22;28351;51.480;5.706;2023-03-01T17:19:51;4.90;94.20
42715;DHT22;28351;51.480;5.706;2023-03-01T17:22:18;4.80;94.40
42715;DHT22;28351;51.480;5.706;2023-03-01T17:24:43;4.80;94.50
42715;DHT22;28351;51.480;5.706;2023-03-01T17:27:11;4.70;94.70
42715;DHT22;28351;51.480;5.706;2023-03-01T17:29:38;4.60;95.00
42715;DHT22;28351;51.480;5.706;2023-03-01T17:32:05;4.50;95.40
42715;DHT22;28351;51.480;5.706;2023-03-01T17:34:32;4.50;95.50
42715;DHT22;28351;51.480;5.706;2023-03-01T17:36:57;4.40;95.40
42715;DHT22;28351;51.480;5.706;2023-03-01T17:39:23;4.20;95.70
42715;DHT22;28351;51.480;5.706;2023-03-01T17:41:55;4.10;95.90
42715;DHT22;28351;51.480;5.706;2023-03-01T17:44:21;4.00;96.10
42715;DHT22;28351;51.480;5.706;2023-03-01T17:46:47;3.80;96.60
42715;DHT22;28351;51.480;5.706;2023-03-01T17:49:12;3.70;96.90
42715;DHT22;28351;51.480;5.706;2023-03-01T17:51:38;3.60;97.10
42715;DHT22;28351;51.480;5.706;2023-03-01T17:54:04;3.60;97.40
42715;DHT22;28351;51.480;5.706;2023-03-01T17:56:29;3.50;97.50
42715;DHT22;28351;51.480;5.706;2023-03-01T17:58:59;3.40;97.80
42715;DHT22;28351;51.480;5.706;2023-03-01T18:01:26;3.30;97.90
42715;DHT22;28351;51.480;5.706;2023-03-01T18:03:54;3.30;98.30
42715;DHT22;28351;51.480;5.706;2023-03-01T18:06:24;3.20;98.20
42715;DHT22;28351;51.480;5.706;2023-03-01T18:08:54;3.10;98.50
42715;DHT22;28351;51.480;5.706;2023-03-01T18:11:24;3.00;98.60
42715;DHT22;28351;51.480;5.706;2023-03-01T18:13:51;3.00;99.00
42715;DHT22;28351;51.480;5.706;2023-03-01T18:16:19;2.90;98.70
42715;DHT22;28351;51.480;5.706;2023-03-01T18:18:52;2.90;98.90
42715;DHT22;28351;51.480;5.706;2023-03-01T18:21:18;2.80;98.90
42715;DHT22;28351;51.480;5.706;2023-03-01T18:23:45;2.80;98.80
42715;DHT22;28351;51.480;5.706;2023-03-01T18:26:12;2.80;98.70
42715;DHT22;28351;51.480;5.706;2023-03-01T18:28:43;2.90;98.80
42715;DHT22;28351;51.480;5.706;2023-03-01T18:31:12;2.90;98.60
42715;DHT22;28351;51.480;5.706;2023-03-01T18:33:40;2.80;98.70
42715;DHT22;28351;51.480;5.706;2023-03-01T18:36:12;2.80;98.80
42715;DHT22;28351;51.480;5.706;2023-03-01T18:38:40;2.80;98.70
42715;DHT22;28351;51.480;5.706;2023-03-01T18:41:05;2.80;98.80
42715;DHT22;28351;51.480;5.706;2023-03-01T18:43:38;2.70;98.80
42715;DHT22;28351;51.480;5.706;2023-03-01T18:46:04;2.70;99.20
42715;DHT22;28351;51.480;5.706;2023-03-01T18:48:30;2.60;99.10
42715;DHT22;28351;51.480;5.706;2023-03-01T18:50:57;2.50;99.20
42715;DHT22;28351;51.480;5.706;2023-03-01T18:53:23;2.40;99.30
42715;DHT22;28351;51.480;5.706;2023-03-01T18:55:48;2.40;99.40